sensor_id;sensor_type;location;lat;lon;timestamp;pressure;altitude;pressure_sealevel;temperature;humidity
25084;BME280;13075;55.682;37.564;2023-04-25T00:01:14;99300.72;;;19.19;37.80
25084;BME280;13075;55.682;37.564;2023-04-25T00:03:39;99306.44;;;18.86;38.21
25084;BME280;13075;55.682;37.564;2023-04-25T00:06:05;99302.53;;;18.72;38.69
25084;BME280;13075;55.682;37.564;2023-04-25T00:08:31;99314.91;;;18.94;38.11
25084;BME280;13075;55.682;37.564;2023-04-25T00:10:57;99312.84;;;18.75;38.67
25084;BME280;13075;55.682;37.564;2023-04-25T00:13:23;99316.91;;;18.72;38.90
25084;BME280;13075;55.682;37.564;2023-04-25T00:15:48;99320.13;;;18.42;39.26
25084;BME280;13075;55.682;37.564;2023-04-25T00:18:14;99316.16;;;18.82;38.92
25084;BME280;13075;55.682;37.564;2023-04-25T00:20:39;99323.63;;;18.43;39.60
25084;BME280;13075;55.682;37.564;2023-04-25T00:23:05;99320.66;;;18.18;39.98
25084;BME280;13075;55.682;37.564;2023-04-25T00:25:30;99317.56;;;18.31;40.21
25084;BME280;13075;55.682;37.564;2023-04-25T00:27:56;99325.34;;;18.76;39.34
25084;BME280;13075;55.682;37.564;2023-04-25T00:30:21;99312.28;;;18.73;39.50
25084;BME280;13075;55.682;37.564;2023-04-25T00:32:47;99318.88;;;18.28;40.33
25084;BME280;13075;55.682;37.564;2023-04-25T00:35:13;99319.75;;;18.55;39.94
25084;BME280;13075;55.682;37.564;2023-04-25T00:37:39;99320.03;;;18.32;40.18
25084;BME280;13075;55.682;37.564;2023-04-25T00:40:05;99311.75;;;18.71;39.73
25084;BME280;13075;55.682;37.564;2023-04-25T00:42:31;99314.69;;;18.69;39.88
25084;BME280;13075;55.682;37.564;2023-04-25T00:44:57;99307.13;;;18.44;40.52
25084;BME280;13075;55.682;37.564;2023-04-25T00:47:23;99305.25;;;18.45;40.27
25084;BME280;13075;55.682;37.564;2023-04-25T00:49:49;99312.38;;;18.51;40.24
25084;BME280;13075;55.682;37.564;2023-04-25T00:52:15;99320.47;;;18.78;40.26
25084;BME280;13075;55.682;37.564;2023-04-25T00:54:40;99305.31;;;18.82;40.14
25084;BME280;13075;55.682;37.564;2023-04-25T00:57:06;99310.13;;;18.75;40.13
25084;BME280;13075;55.682;37.564;2023-04-25T00:59:32;99312.56;;;18.71;40.21
25084;BME280;13075;55.682;37.564;2023-04-25T01:01:57;99313.19;;;18.83;39.94
25084;BME280;13075;55.682;37.564;2023-04-25T01:04:24;99317.28;;;18.86;40.03
25084;BME280;13075;55.682;37.564;2023-04-25T01:06:51;99316.66;;;18.47;40.79
25084;BME280;13075;55.682;37.564;2023-04-25T01:09:16;99310.75;;;18.50;40.89
25084;BME280;13075;55.682;37.564;2023-04-25T01:11:43;99301.53;;;18.51;40.86
25084;BME280;13075;55.682;37.564;2023-04-25T01:14:09;99304.63;;;18.38;40.98
25084;BME280;13075;55.682;37.564;2023-04-25T01:16:34;99301.88;;;18.59;40.88
25084;BME280;13075;55.682;37.564;2023-04-25T01:19:05;99301.31;;;18.57;41.13
25084;BME280;13075;55.682;37.564;2023-04-25T01:21:34;99300.41;;;18.47;41.23
25084;BME280;13075;55.682;37.564;2023-04-25T01:23:59;99298.94;;;18.66;41.27
25084;BME280;13075;55.682;37.564;2023-04-25T01:26:26;99297.75;;;18.52;41.57
25084;BME280;13075;55.682;37.564;2023-04-25T01:28:51;99299.59;;;18.78;41.28
25084;BME280;13075;55.682;37.564;2023-04-25T01:31:17;99288.72;;;18.46;41.71
25084;BME280;13075;55.682;37.564;2023-04-25T01:33:43;99286.94;;;18.30;41.82
25084;BME280;13075;55.682;37.564;2023-04-25T01:36:09;99279.09;;;18.55;41.82
25084;BME280;13075;55.682;37.564;2023-04-25T01:38:34;99273.00;;;18.75;41.72
25084;BME280;13075;55.682;37.564;2023-04-25T01:41:00;99280.41;;;18.85;41.69
25084;BME280;13075;55.682;37.564;2023-04-25T01:43:26;99281.78;;;18.87;41.59
25084;BME280;13075;55.682;37.564;2023-04-25T01:45:52;99291.91;;;18.65;42.23
25084;BME280;13075;55.682;37.564;2023-04-25T01:48:18;99283.06;;;18.48;42.28
25084;BME280;13075;55.682;37.564;2023-04-25T01:50:45;99284.16;;;18.79;41.38
25084;BME280;13075;55.682;37.564;2023-04-25T01:53:11;99285.84;;;18.53;41.78
25084;BME280;13075;55.682;37.564;2023-04-25T01:55:37;99276.66;;;18.91;41.19
25084;BME280;13075;55.682;37.564;2023-04-25T01:58:07;99274.75;;;18.86;41.47
25084;BME280;13075;55.682;37.564;2023-04-25T02:01:10;99278.25;;;18.87;41.44
25084;BME280;13075;55.682;37.564;2023-04-25T02:03:42;99272.25;;;18.85;41.58
25084;BME280;13075;55.682;37.564;2023-04-25T02:06:17;99269.56;;;18.85;42.02
25084;BME280;13075;55.682;37.564;2023-04-25T02:08:44;99266.13;;;18.94;41.80
25084;BME280;13075;55.682;37.564;2023-04-25T02:11:11;99278.38;;;19.02;41.74
25084;BME280;13075;55.682;37.564;2023-04-25T02:13:43;99264.84;;;18.70;42.47
25084;BME280;13075;55.682;37.564;2023-04-25T02:16:41;99271.53;;;18.94;42.01
25084;BME280;13075;55.682;37.564;2023-04-25T02:19:09;99263.69;;;18.98;42.03
25084;BME280;13075;55.682;37.564;2023-04-25T02:21:35;99266.13;;;18.94;42.30
25084;BME280;13075;55.682;37.564;2023-04-25T02:24:01;99270.34;;;18.80;42.36
25084;BME280;13075;55.682;37.564;2023-04-25T02:26:27;99264.69;;;18.87;42.34
25084;BME280;13075;55.682;37.564;2023-04-25T02:28:53;99265.75;;;18.49;42.87
25084;BME280;13075;55.682;37.564;2023-04-25T02:31:18;99266.78;;;18.75;42.64
25084;BME280;13075;55.682;37.564;2023-04-25T02:33:44;99273.59;;;18.82;42.47
25084;BME280;13075;55.682;37.564;2023-04-25T02:36:10;99267.28;;;18.72;42.93
25084;BME280;13075;55.682;37.564;2023-04-25T02:38:35;99269.91;;;18.93;42.83
25084;BME280;13075;55.682;37.564;2023-04-25T02:41:02;99274.53;;;18.98;42.86
25084;BME280;13075;55.682;37.564;2023-04-25T02:43:28;99264.53;;;19.03;42.55
25084;BME280;13075;55.682;37.564;2023-04-25T02:45:53;99257.84;;;19.21;42.55
25084;BME280;13075;55.682;37.564;2023-04-25T02:48:19;99262.50;;;19.30;42.14
25084;BME280;13075;55.682;37.564;2023-04-25T02:50:44;99261.41;;;19.21;42.39
25084;BME280;13075;55.682;37.564;2023-04-25T02:53:10;99269.84;;;19.25;42.11
25084;BME280;13075;55.682;37.564;2023-04-25T02:55:43;99264.44;;;18.88;42.21
25084;BME280;13075;55.682;37.564;2023-04-25T02:58:09;99264.56;;;19.08;41.62
25084;BME280;13075;55.682;37.564;2023-04-25T03:00:47;99264.66;;;19.23;41.71
25084;BME280;13075;55.682;37.564;2023-04-25T03:03:14;99261.16;;;19.33;41.53
25084;BME280;13075;55.682;37.564;2023-04-25T03:05:43;99258.28;;;19.45;41.05
25084;BME280;13075;55.682;37.564;2023-04-25T03:08:08;99274.19;;;19.31;41.29
25084;BME280;13075;55.682;37.564;2023-04-25T03:10:36;99274.41;;;19.66;41.03
25084;BME280;13075;55.682;37.564;2023-04-25T03:13:05;99272.69;;;19.45;40.97
25084;BME280;13075;55.682;37.564;2023-04-25T03:15:30;99273.22;;;19.47;41.02
25084;BME280;13075;55.682;37.564;2023-04-25T03:17:56;99277.53;;;19.38;40.94
25084;BME280;13075;55.682;37.564;2023-04-25T03:20:22;99273.03;;;19.59;40.77
25084;BME280;13075;55.682;37.564;2023-04-25T03:22:48;99283.88;;;19.59;40.89
25084;BME280;13075;55.682;37.564;2023-04-25T03:25:13;99284.06;;;19.47;41.09
25084;BME280;13075;55.682;37.564;2023-04-25T03:27:39;99275.50;;;19.23;41.77
25084;BME280;13075;55.682;37.564;2023-04-25T03:30:05;99285.31;;;18.88;42.73
25084;BME280;13075;55.682;37.564;2023-04-25T03:32:31;99278.47;;;19.17;42.21
25084;BME280;13075;55.682;37.564;2023-04-25T03:34:57;99282.47;;;19.56;41.55
25084;BME280;13075;55.682;37.564;2023-04-25T03:37:24;99283.00;;;19.43;42.08
25084;BME280;13075;55.682;37.564;2023-04-25T03:39:50;99289.88;;;19.66;41.63
25084;BME280;13075;55.682;37.564;2023-04-25T03:42:16;99286.16;;;19.35;42.22
25084;BME280;13075;55.682;37.564;2023-04-25T03:44:43;99290.69;;;19.19;42.79
25084;BME280;13075;55.682;37.564;2023-04-25T03:47:08;99289.56;;;19.15;42.87
25084;BME280;13075;55.682;37.564;2023-04-25T03:49:34;99281.47;;;19.25;43.38
25084;BME280;13075;55.682;37.564;2023-04-25T03:52:02;99294.16;;;19.57;42.60
25084;BME280;13075;55.682;37.564;2023-04-25T03:54:33;99288.00;;;19.71;42.55
25084;BME280;13075;55.682;37.564;2023-04-25T03:57:11;99285.72;;;19.48;43.00
25084;BME280;13075;55.682;37.564;2023-04-25T03:59:38;99286.84;;;19.57;42.40
25084;BME280;13075;55.682;37.564;2023-04-25T04:02:04;99281.09;;;19.54;42.79
25084;BME280;13075;55.682;37.564;2023-04-25T04:04:32;99292.16;;;20.04;41.73
25084;BME280;13075;55.682;37.564;2023-04-25T04:06:59;99281.59;;;20.03;41.65
25084;BME280;13075;55.682;37.564;2023-04-25T04:09:27;99283.16;;;19.83;42.32
25084;BME280;13075;55.682;37.564;2023-04-25T04:11:54;99280.91;;;19.65;42.72
25084;BME280;13075;55.682;37.564;2023-04-25T04:14:20;99270.63;;;19.77;43.03
25084;BME280;13075;55.682;37.564;2023-04-25T04:16:47;99280.94;;;19.75;43.13
25084;BME280;13075;55.682;37.564;2023-04-25T04:19:13;99285.16;;;19.46;43.54
25084;BME280;13075;55.682;37.564;2023-04-25T04:21:43;99283.69;;;19.80;42.89
25084;BME280;13075;55.682;37.564;2023-04-25T04:24:09;99282.53;;;19.61;43.54
25084;BME280;13075;55.682;37.564;2023-04-25T04:26:48;99291.97;;;19.54;43.68
25084;BME280;13075;55.682;37.564;2023-04-25T04:29:29;99285.06;;;19.88;43.35
25084;BME280;13075;55.682;37.564;2023-04-25T04:32:14;99282.22;;;21.05;41.69
25084;BME280;13075;55.682;37.564;2023-04-25T04:34:41;99279.78;;;20.94;41.62
25084;BME280;13075;55.682;37.564;2023-04-25T04:37:07;99279.50;;;21.05;41.32
25084;BME280;13075;55.682;37.564;2023-04-25T04:39:33;99283.59;;;21.08;41.44
25084;BME280;13075;55.682;37.564;2023-04-25T04:42:12;99287.31;;;21.47;40.74
25084;BME280;13075;55.682;37.564;2023-04-25T04:44:57;99283.03;;;21.26;40.79
25084;BME280;13075;55.682;37.564;2023-04-25T04:47:46;99282.28;;;22.33;39.52
25084;BME280;13075;55.682;37.564;2023-04-25T04:50:33;99272.53;;;22.95;38.31
25084;BME280;13075;55.682;37.564;2023-04-25T04:53:19;99278.09;;;23.66;37.40
25084;BME280;13075;55.682;37.564;2023-04-25T04:55:44;99271.81;;;23.13;37.32
25084;BME280;13075;55.682;37.564;2023-04-25T04:58:25;99265.91;;;21.95;39.52
25084;BME280;13075;55.682;37.564;2023-04-25T05:01:17;99270.63;;;21.69;40.15
25084;BME280;13075;55.682;37.564;2023-04-25T05:04:01;99269.34;;;21.51;40.23
25084;BME280;13075;55.682;37.564;2023-04-25T05:07:06;99261.78;;;23.09;38.30
25084;BME280;13075;55.682;37.564;2023-04-25T05:09:46;99251.06;;;23.65;37.03
25084;BME280;13075;55.682;37.564;2023-04-25T05:12:30;99256.56;;;23.12;37.23
25084;BME280;13075;55.682;37.564;2023-04-25T05:15:07;99271.25;;;23.69;36.63
25084;BME280;13075;55.682;37.564;2023-04-25T05:17:50;99258.84;;;25.61;34.63
25084;BME280;13075;55.682;37.564;2023-04-25T05:20:36;99258.75;;;28.65;30.64
25084;BME280;13075;55.682;37.564;2023-04-25T05:23:24;99246.31;;;30.19;28.27
25084;BME280;13075;55.682;37.564;2023-04-25T05:25:59;99252.66;;;30.61;26.96
25084;BME280;13075;55.682;37.564;2023-04-25T05:28:42;99246.59;;;29.38;28.19
25084;BME280;13075;55.682;37.564;2023-04-25T05:31:30;99250.88;;;29.19;28.36
25084;BME280;13075;55.682;37.564;2023-04-25T05:34:03;99249.03;;;28.42;29.02
25084;BME280;13075;55.682;37.564;2023-04-25T05:36:40;99251.75;;;26.81;30.71
25084;BME280;13075;55.682;37.564;2023-04-25T05:39:05;99255.88;;;25.44;32.09
25084;BME280;13075;55.682;37.564;2023-04-25T05:41:54;99248.16;;;27.90;29.93
25084;BME280;13075;55.682;37.564;2023-04-25T05:44:38;99244.81;;;28.87;28.70
25084;BME280;13075;55.682;37.564;2023-04-25T05:47:30;99242.84;;;29.43;27.78
25084;BME280;13075;55.682;37.564;2023-04-25T05:50:06;99244.47;;;28.03;29.02
25084;BME280;13075;55.682;37.564;2023-04-25T05:53:00;99251.22;;;27.01;30.52
25084;BME280;13075;55.682;37.564;2023-04-25T05:55:29;99237.06;;;26.86;31.56
25084;BME280;13075;55.682;37.564;2023-04-25T05:57:56;99238.19;;;26.63;31.34
25084;BME280;13075;55.682;37.564;2023-04-25T06:00:22;99235.34;;;26.98;31.18
25084;BME280;13075;55.682;37.564;2023-04-25T06:02:48;99236.88;;;28.34;29.71
25084;BME280;13075;55.682;37.564;2023-04-25T06:05:14;99229.28;;;28.83;29.50
25084;BME280;13075;55.682;37.564;2023-04-25T06:07:40;99236.28;;;29.18;28.60
25084;BME280;13075;55.682;37.564;2023-04-25T06:10:05;99223.66;;;30.67;26.74
25084;BME280;13075;55.682;37.564;2023-04-25T06:12:34;99216.25;;;29.47;28.08
25084;BME280;13075;55.682;37.564;2023-04-25T06:15:02;99223.69;;;27.23;30.66
25084;BME280;13075;55.682;37.564;2023-04-25T06:17:30;99222.34;;;27.12;30.81
25084;BME280;13075;55.682;37.564;2023-04-25T06:19:56;99221.69;;;27.46;30.13
25084;BME280;13075;55.682;37.564;2023-04-25T06:22:22;99220.97;;;27.32;29.28
25084;BME280;13075;55.682;37.564;2023-04-25T06:24:48;99196.78;;;27.03;30.24
25084;BME280;13075;55.682;37.564;2023-04-25T06:27:13;99207.97;;;27.55;29.59
25084;BME280;13075;55.682;37.564;2023-04-25T06:29:39;99206.72;;;26.91;30.01
25084;BME280;13075;55.682;37.564;2023-04-25T06:32:04;99208.19;;;27.84;29.00
25084;BME280;13075;55.682;37.564;2023-04-25T06:34:30;99211.25;;;27.82;29.77
25084;BME280;13075;55.682;37.564;2023-04-25T06:36:56;99201.06;;;27.27;30.26
25084;BME280;13075;55.682;37.564;2023-04-25T06:39:21;99216.66;;;27.40;29.49
25084;BME280;13075;55.682;37.564;2023-04-25T06:41:48;99214.47;;;28.96;28.00
25084;BME280;13075;55.682;37.564;2023-04-25T06:44:34;99200.69;;;31.32;25.58
25084;BME280;13075;55.682;37.564;2023-04-25T06:47:00;99200.94;;;30.08;26.95
25084;BME280;13075;55.682;37.564;2023-04-25T06:49:25;99203.16;;;30.56;26.18
25084;BME280;13075;55.682;37.564;2023-04-25T06:51:51;99201.72;;;29.58;26.80
25084;BME280;13075;55.682;37.564;2023-04-25T06:54:16;99208.88;;;29.89;26.63
25084;BME280;13075;55.682;37.564;2023-04-25T06:56:52;99212.63;;;28.62;27.18
25084;BME280;13075;55.682;37.564;2023-04-25T06:59:18;99202.25;;;30.97;24.86
25084;BME280;13075;55.682;37.564;2023-04-25T07:01:45;99205.59;;;30.37;25.35
25084;BME280;13075;55.682;37.564;2023-04-25T07:04:15;99207.47;;;37.77;19.40
25084;BME280;13075;55.682;37.564;2023-04-25T07:06:47;99193.81;;;43.24;16.44
25084;BME280;13075;55.682;37.564;2023-04-25T07:09:16;99191.25;;;44.23;15.51
25084;BME280;13075;55.682;37.564;2023-04-25T07:11:45;99195.13;;;46.26;14.05
25084;BME280;13075;55.682;37.564;2023-04-25T07:14:10;99185.50;;;46.77;13.65
25084;BME280;13075;55.682;37.564;2023-04-25T07:16:36;99185.81;;;48.33;13.19
25084;BME280;13075;55.682;37.564;2023-04-25T07:19:01;99179.53;;;49.84;12.10
25084;BME280;13075;55.682;37.564;2023-04-25T07:21:27;99180.97;;;49.80;12.26
25084;BME280;13075;55.682;37.564;2023-04-25T07:23:53;99179.06;;;50.31;11.92
25084;BME280;13075;55.682;37.564;2023-04-25T07:26:24;99175.63;;;48.44;12.50
25084;BME280;13075;55.682;37.564;2023-04-25T07:29:19;99178.31;;;49.58;12.30
25084;BME280;13075;55.682;37.564;2023-04-25T07:31:44;99177.53;;;47.35;12.33
25084;BME280;13075;55.682;37.564;2023-04-25T07:34:10;99174.47;;;47.30;12.55
25084;BME280;13075;55.682;37.564;2023-04-25T07:36:37;99174.13;;;48.31;12.53
25084;BME280;13075;55.682;37.564;2023-04-25T07:39:03;99179.66;;;47.57;12.96
25084;BME280;13075;55.682;37.564;2023-04-25T07:41:29;99185.97;;;46.76;12.94
25084;BME280;13075;55.682;37.564;2023-04-25T07:43:55;99192.28;;;46.80;13.07
25084;BME280;13075;55.682;37.564;2023-04-25T07:46:20;99177.00;;;46.77;12.68
25084;BME280;13075;55.682;37.564;2023-04-25T07:48:46;99178.41;;;45.58;13.29
25084;BME280;13075;55.682;37.564;2023-04-25T07:51:12;99176.84;;;47.31;13.01
25084;BME280;13075;55.682;37.564;2023-04-25T07:53:38;99182.94;;;48.24;12.70
25084;BME280;13075;55.682;37.564;2023-04-25T07:56:08;99171.47;;;47.12;12.69
25084;BME280;13075;55.682;37.564;2023-04-25T07:58:37;99181.91;;;41.92;15.19
25084;BME280;13075;55.682;37.564;2023-04-25T08:01:05;99174.69;;;40.33;16.22
25084;BME280;13075;55.682;37.564;2023-04-25T08:03:43;99176.59;;;42.01;15.44
25084;BME280;13075;55.682;37.564;2023-04-25T08:06:21;99172.50;;;44.88;14.02
25084;BME280;13075;55.682;37.564;2023-04-25T08:08:55;99185.47;;;41.11;15.55
25084;BME280;13075;55.682;37.564;2023-04-25T08:11:26;99175.31;;;40.66;15.99
25084;BME280;13075;55.682;37.564;2023-04-25T08:13:52;99182.16;;;38.14;17.58
25084;BME280;13075;55.682;37.564;2023-04-25T08:16:17;99184.25;;;42.01;14.72
25084;BME280;13075;55.682;37.564;2023-04-25T08:18:42;99170.19;;;43.41;14.10
25084;BME280;13075;55.682;37.564;2023-04-25T08:21:08;99172.41;;;43.30;14.36
25084;BME280;13075;55.682;37.564;2023-04-25T08:23:36;99183.97;;;35.64;17.82
25084;BME280;13075;55.682;37.564;2023-04-25T08:26:22;99178.78;;;32.55;20.63
25084;BME280;13075;55.682;37.564;2023-04-25T08:28:49;99174.19;;;31.55;21.88
25084;BME280;13075;55.682;37.564;2023-04-25T08:31:15;99169.03;;;30.19;22.95
25084;BME280;13075;55.682;37.564;2023-04-25T08:33:52;99175.03;;;30.21;22.58
25084;BME280;13075;55.682;37.564;2023-04-25T08:36:26;99165.84;;;29.96;23.73
25084;BME280;13075;55.682;37.564;2023-04-25T08:38:53;99158.19;;;30.67;23.20
25084;BME280;13075;55.682;37.564;2023-04-25T08:41:19;99166.31;;;28.30;25.59
25084;BME280;13075;55.682;37.564;2023-04-25T08:43:45;99167.31;;;28.25;26.05
25084;BME280;13075;55.682;37.564;2023-04-25T08:46:13;99154.22;;;28.86;26.02
25084;BME280;13075;55.682;37.564;2023-04-25T08:48:56;99157.56;;;29.09;25.70
25084;BME280;13075;55.682;37.564;2023-04-25T08:51:25;99161.47;;;30.28;24.52
25084;BME280;13075;55.682;37.564;2023-04-25T08:53:53;99162.53;;;29.24;25.09
25084;BME280;13075;55.682;37.564;2023-04-25T08:56:19;99151.38;;;30.65;23.88
25084;BME280;13075;55.682;37.564;2023-04-25T08:58:47;99152.84;;;31.31;23.42
25084;BME280;13075;55.682;37.564;2023-04-25T09:01:13;99148.47;;;30.29;23.99
25084;BME280;13075;55.682;37.564;2023-04-25T09:03:46;99153.56;;;28.25;25.55
25084;BME280;13075;55.682;37.564;2023-04-25T09:06:13;99155.13;;;27.75;26.43
25084;BME280;13075;55.682;37.564;2023-04-25T09:08:38;99154.22;;;27.32;26.87
25084;BME280;13075;55.682;37.564;2023-04-25T09:11:06;99149.47;;;27.63;26.76
25084;BME280;13075;55.682;37.564;2023-04-25T09:13:32;99146.56;;;27.68;26.07
25084;BME280;13075;55.682;37.564;2023-04-25T09:16:14;99145.25;;;27.57;26.45
25084;BME280;13075;55.682;37.564;2023-04-25T09:18:58;99138.13;;;27.08;26.75
25084;BME280;13075;55.682;37.564;2023-04-25T09:21:23;99147.31;;;27.51;26.69
25084;BME280;13075;55.682;37.564;2023-04-25T09:23:49;99142.13;;;27.41;26.70
25084;BME280;13075;55.682;37.564;2023-04-25T09:26:18;99141.44;;;25.55;28.43
25084;BME280;13075;55.682;37.564;2023-04-25T09:28:44;99140.34;;;26.14;28.46
25084;BME280;13075;55.682;37.564;2023-04-25T09:31:11;99128.41;;;26.63;27.79
25084;BME280;13075;55.682;37.564;2023-04-25T09:33:44;99123.19;;;27.31;27.31
25084;BME280;13075;55.682;37.564;2023-04-25T09:36:09;99131.66;;;27.43;27.12
25084;BME280;13075;55.682;37.564;2023-04-25T09:38:57;99126.34;;;27.81;26.79
25084;BME280;13075;55.682;37.564;2023-04-25T09:41:27;99126.19;;;27.95;26.41
25084;BME280;13075;55.682;37.564;2023-04-25T09:43:56;99127.81;;;27.78;27.01
25084;BME280;13075;55.682;37.564;2023-04-25T09:46:24;99117.28;;;26.98;27.74
25084;BME280;13075;55.682;37.564;2023-04-25T09:48:54;99123.28;;;28.89;26.21
25084;BME280;13075;55.682;37.564;2023-04-25T09:51:33;99127.81;;;28.04;26.32
25084;BME280;13075;55.682;37.564;2023-04-25T09:53:59;99126.84;;;27.74;26.36
25084;BME280;13075;55.682;37.564;2023-04-25T09:56:51;99113.69;;;28.95;25.25
25084;BME280;13075;55.682;37.564;2023-04-25T09:59:22;99107.53;;;28.98;24.69
25084;BME280;13075;55.682;37.564;2023-04-25T10:01:49;99126.97;;;28.38;25.38
25084;BME280;13075;55.682;37.564;2023-04-25T10:04:28;99106.16;;;28.03;26.59
25084;BME280;13075;55.682;37.564;2023-04-25T10:07:06;99107.50;;;28.69;25.58
25084;BME280;13075;55.682;37.564;2023-04-25T10:09:32;99102.22;;;28.93;25.21
25084;BME280;13075;55.682;37.564;2023-04-25T10:12:02;99106.28;;;27.80;26.29
25084;BME280;13075;55.682;37.564;2023-04-25T10:14:29;99091.06;;;28.26;25.78
25084;BME280;13075;55.682;37.564;2023-04-25T10:16:54;99103.53;;;28.87;25.46
25084;BME280;13075;55.682;37.564;2023-04-25T10:19:21;99094.81;;;27.87;26.48
25084;BME280;13075;55.682;37.564;2023-04-25T10:21:51;99108.50;;;26.88;27.03
25084;BME280;13075;55.682;37.564;2023-04-25T10:24:17;99091.06;;;27.40;27.43
25084;BME280;13075;55.682;37.564;2023-04-25T10:26:43;99089.97;;;28.01;26.48
25084;BME280;13075;55.682;37.564;2023-04-25T10:29:08;99086.22;;;28.23;25.71
25084;BME280;13075;55.682;37.564;2023-04-25T10:31:37;99078.59;;;28.28;25.69
25084;BME280;13075;55.682;37.564;2023-04-25T10:34:09;99081.38;;;27.60;26.54
25084;BME280;13075;55.682;37.564;2023-04-25T10:36:34;99076.78;;;27.12;26.72
25084;BME280;13075;55.682;37.564;2023-04-25T10:39:03;99079.66;;;26.99;27.06
25084;BME280;13075;55.682;37.564;2023-04-25T10:41:32;99072.91;;;27.22;27.09
25084;BME280;13075;55.682;37.564;2023-04-25T10:44:10;99072.66;;;27.83;26.71
25084;BME280;13075;55.682;37.564;2023-04-25T10:46:35;99067.00;;;26.50;27.62
25084;BME280;13075;55.682;37.564;2023-04-25T10:49:02;99065.09;;;26.59;27.60
25084;BME280;13075;55.682;37.564;2023-04-25T10:51:31;99055.50;;;27.44;26.97
25084;BME280;13075;55.682;37.564;2023-04-25T10:54:01;99055.81;;;26.77;27.27
25084;BME280;13075;55.682;37.564;2023-04-25T10:56:27;99058.94;;;26.93;27.00
25084;BME280;13075;55.682;37.564;2023-04-25T11:01:35;99046.13;;;27.45;26.98
25084;BME280;13075;55.682;37.564;2023-04-25T11:04:01;99048.91;;;27.53;27.19
25084;BME280;13075;55.682;37.564;2023-04-25T11:06:29;99046.56;;;26.65;28.14
25084;BME280;13075;55.682;37.564;2023-04-25T11:08:57;99043.59;;;26.83;28.00
25084;BME280;13075;55.682;37.564;2023-04-25T11:11:25;99034.16;;;26.76;27.73
25084;BME280;13075;55.682;37.564;2023-04-25T11:13:51;99027.34;;;26.03;28.69
25084;BME280;13075;55.682;37.564;2023-04-25T11:16:17;99028.59;;;25.97;28.84
25084;BME280;13075;55.682;37.564;2023-04-25T11:18:43;99029.22;;;26.86;28.10
25084;BME280;13075;55.682;37.564;2023-04-25T11:21:08;99016.88;;;26.27;28.35
25084;BME280;13075;55.682;37.564;2023-04-25T11:23:34;99020.13;;;26.38;28.62
25084;BME280;13075;55.682;37.564;2023-04-25T11:26:00;99008.22;;;26.90;27.30
25084;BME280;13075;55.682;37.564;2023-04-25T11:28:26;99007.91;;;26.13;28.27
25084;BME280;13075;55.682;37.564;2023-04-25T11:30:52;99005.75;;;26.32;28.31
25084;BME280;13075;55.682;37.564;2023-04-25T11:33:17;99003.88;;;26.50;28.35
25084;BME280;13075;55.682;37.564;2023-04-25T11:35:43;99000.13;;;25.84;29.00
25084;BME280;13075;55.682;37.564;2023-04-25T11:38:09;98999.13;;;26.33;28.72
25084;BME280;13075;55.682;37.564;2023-04-25T11:40:35;98998.63;;;25.78;29.08
25084;BME280;13075;55.682;37.564;2023-04-25T11:43:01;98995.38;;;26.21;28.58
25084;BME280;13075;55.682;37.564;2023-04-25T11:45:26;98994.44;;;25.36;29.79
25084;BME280;13075;55.682;37.564;2023-04-25T11:47:52;98987.81;;;25.73;29.51
25084;BME280;13075;55.682;37.564;2023-04-25T11:50:18;98990.03;;;25.93;29.00
25084;BME280;13075;55.682;37.564;2023-04-25T11:52:45;98982.31;;;25.95;29.00
25084;BME280;13075;55.682;37.564;2023-04-25T11:55:15;98989.59;;;24.98;29.78
25084;BME280;13075;55.682;37.564;2023-04-25T11:57:41;98983.50;;;25.36;29.72
25084;BME280;13075;55.682;37.564;2023-04-25T12:00:08;98975.78;;;25.83;29.32
25084;BME280;13075;55.682;37.564;2023-04-25T12:02:39;98978.81;;;26.43;28.68
25084;BME280;13075;55.682;37.564;2023-04-25T12:05:06;98975.00;;;25.24;29.82
25084;BME280;13075;55.682;37.564;2023-04-25T12:07:33;98970.19;;;25.66;29.43
25084;BME280;13075;55.682;37.564;2023-04-25T12:09:58;98967.66;;;25.47;29.96
25084;BME280;13075;55.682;37.564;2023-04-25T12:12:27;98970.41;;;25.47;29.58
25084;BME280;13075;55.682;37.564;2023-04-25T12:14:53;98965.25;;;25.98;29.07
25084;BME280;13075;55.682;37.564;2023-04-25T12:17:20;98951.97;;;25.03;30.10
25084;BME280;13075;55.682;37.564;2023-04-25T12:19:46;98957.53;;;25.34;30.17
25084;BME280;13075;55.682;37.564;2023-04-25T12:22:21;98952.97;;;24.31;31.00
25084;BME280;13075;55.682;37.564;2023-04-25T12:24:47;98958.19;;;24.82;30.58
25084;BME280;13075;55.682;37.564;2023-04-25T12:27:14;98961.34;;;24.61;31.16
25084;BME280;13075;55.682;37.564;2023-04-25T12:29:49;98953.84;;;24.67;31.31
25084;BME280;13075;55.682;37.564;2023-04-25T12:32:16;98939.16;;;25.12;30.89
25084;BME280;13075;55.682;37.564;2023-04-25T12:34:42;98941.75;;;24.95;30.88
25084;BME280;13075;55.682;37.564;2023-04-25T12:37:07;98934.09;;;24.56;31.71
25084;BME280;13075;55.682;37.564;2023-04-25T12:39:32;98929.63;;;24.47;31.46
25084;BME280;13075;55.682;37.564;2023-04-25T12:41:58;98928.69;;;24.65;31.23
25084;BME280;13075;55.682;37.564;2023-04-25T12:44:24;98917.63;;;24.21;31.94
25084;BME280;13075;55.682;37.564;2023-04-25T12:46:50;98918.19;;;26.53;29.31
25084;BME280;13075;55.682;37.564;2023-04-25T12:49:15;98915.22;;;26.01;29.58
25084;BME280;13075;55.682;37.564;2023-04-25T12:51:41;98904.06;;;25.59;29.89
25084;BME280;13075;55.682;37.564;2023-04-25T12:54:07;98904.56;;;25.38;30.68
25084;BME280;13075;55.682;37.564;2023-04-25T12:56:33;98896.63;;;25.37;30.76
25084;BME280;13075;55.682;37.564;2023-04-25T12:58:59;98895.38;;;25.57;31.12
25084;BME280;13075;55.682;37.564;2023-04-25T13:01:24;98901.03;;;26.39;30.12
25084;BME280;13075;55.682;37.564;2023-04-25T13:03:50;98881.03;;;25.90;30.44